createdAt,value
2022-12-28T00:01:40.096Z,15.38
2022-12-28T00:04:14.166Z,16.50
2022-12-28T00:06:41.148Z,15.68
2022-12-28T00:09:09.175Z,14.95
2022-12-28T00:11:49.131Z,15.23
2022-12-28T00:14:19.295Z,15.63
2022-12-28T00:16:46.559Z,15.68
2022-12-28T00:19:23.131Z,16.13
2022-12-28T00:21:57.136Z,15.90
2022-12-28T00:24:25.266Z,15.50
2022-12-28T00:26:59.158Z,15.50
2022-12-28T00:29:26.272Z,15.75
2022-12-28T00:32:00.153Z,16.23
2022-12-28T00:34:27.392Z,16.90
2022-12-28T00:37:08.483Z,18.08
2022-12-28T00:39:47.118Z,18.35
2022-12-28T00:42:21.148Z,18.60
2022-12-28T00:44:48.427Z,19.73
2022-12-28T00:47:22.136Z,17.85
2022-12-28T00:49:49.175Z,17.17
2022-12-28T00:52:16.253Z,18.75
2022-12-28T00:54:50.103Z,18.48
2022-12-28T00:57:17.149Z,17.38
2022-12-28T00:59:51.109Z,16.10
2022-12-28T01:02:18.144Z,16.88
2022-12-28T01:04:52.182Z,16.38
2022-12-28T01:07:26.124Z,15.85
2022-12-28T01:09:53.169Z,16.95
2022-12-28T01:12:27.280Z,16.42
2022-12-28T01:14:54.333Z,17.63
2022-12-28T01:17:28.128Z,17.05
2022-12-28T01:19:55.089Z,17.85
2022-12-28T01:22:29.068Z,17.40
2022-12-28T01:24:56.016Z,16.75
2022-12-28T01:27:29.128Z,17.20
2022-12-28T01:29:56.077Z,16.25
2022-12-28T01:32:55.077Z,16.50
2022-12-28T01:35:29.951Z,20.58
2022-12-28T01:38:04.100Z,22.45
2022-12-28T01:40:31.309Z,21.77
2022-12-28T01:43:08.382Z,19.45
2022-12-28T01:45:35.535Z,18.80
2022-12-28T01:48:09.148Z,19.73
2022-12-28T01:50:43.112Z,19.20
2022-12-28T01:53:10.155Z,20.38
2022-12-28T01:55:46.118Z,22.00
2022-12-28T01:58:29.134Z,20.15
2022-12-28T02:00:56.220Z,20.02
2022-12-28T02:03:32.133Z,19.25
2022-12-28T02:06:00.875Z,17.45
2022-12-28T02:08:43.080Z,19.05
2022-12-28T02:11:12.912Z,19.80
2022-12-28T02:13:46.110Z,19.48
2022-12-28T02:16:13.247Z,17.83
2022-12-28T02:18:40.748Z,18.67
2022-12-28T02:22:11.115Z,19.20
2022-12-28T02:24:46.809Z,18.95
2022-12-28T02:28:11.388Z,17.55
2022-12-28T02:30:44.340Z,16.83
2022-12-28T02:34:21.127Z,16.25
2022-12-28T02:36:55.437Z,17.38
2022-12-28T02:39:39.117Z,17.40
2022-12-28T02:42:13.494Z,17.77
2022-12-28T02:44:47.140Z,18.13
2022-12-28T02:47:15.886Z,18.48
2022-12-28T02:49:49.122Z,17.00
2022-12-28T02:52:43.777Z,18.67
2022-12-28T02:55:38.187Z,18.83
2022-12-28T02:58:25.876Z,18.92
2022-12-28T03:01:24.297Z,17.75
2022-12-28T03:04:09.675Z,19.35
2022-12-28T03:07:25.131Z,18.20
2022-12-28T03:10:10.228Z,18.10
2022-12-28T03:12:57.134Z,17.65
2022-12-28T03:15:34.663Z,18.25
2022-12-28T03:18:23.138Z,18.90
2022-12-28T03:20:50.176Z,18.92
2022-12-28T03:23:25.165Z,19.25
2022-12-28T03:25:59.251Z,20.27
2022-12-28T03:28:34.194Z,18.40
2022-12-28T03:31:04.480Z,19.13
2022-12-28T03:33:38.171Z,19.27
2022-12-28T03:36:23.451Z,19.80
2022-12-28T03:38:57.248Z,18.40
2022-12-28T03:41:54.927Z,18.63
2022-12-28T03:44:31.120Z,20.08
2022-12-28T03:47:25.155Z,19.45
2022-12-28T03:50:05.381Z,20.48
2022-12-28T03:52:32.673Z,19.95
2022-12-28T03:54:59.818Z,20.13
2022-12-28T03:57:34.214Z,21.13
2022-12-28T04:00:01.279Z,19.73
2022-12-28T04:02:35.216Z,22.20
2022-12-28T04:05:02.323Z,21.90
2022-12-28T04:07:36.192Z,21.00
2022-12-28T04:10:03.360Z,21.73
2022-12-28T04:12:37.212Z,20.10
2022-12-28T04:15:05.652Z,21.73
2022-12-28T04:17:39.328Z,21.60
2022-12-28T04:20:07.298Z,21.63
2022-12-28T04:22:41.283Z,22.90
2022-12-28T04:25:15.169Z,21.02
2022-12-28T04:27:42.280Z,23.38
2022-12-28T04:30:16.395Z,22.40
2022-12-28T04:32:43.581Z,22.23
2022-12-28T04:35:17.243Z,21.75
2022-12-28T04:37:44.283Z,21.98
2022-12-28T04:40:18.205Z,21.90
2022-12-28T04:42:45.197Z,21.95
2022-12-28T04:45:22.244Z,22.42
2022-12-28T04:47:49.625Z,21.83
2022-12-28T04:50:23.213Z,20.95
2022-12-28T04:52:57.154Z,20.98
2022-12-28T04:55:32.760Z,19.63
2022-12-28T04:58:07.154Z,19.45
2022-12-28T05:00:37.437Z,21.45
2022-12-28T05:03:04.905Z,20.42
2022-12-28T05:05:38.194Z,18.70
2022-12-28T05:08:12.247Z,19.90
2022-12-28T05:10:39.384Z,19.90
2022-12-28T05:13:13.292Z,18.98
2022-12-28T05:15:40.292Z,18.13
2022-12-28T05:18:14.293Z,18.92
2022-12-28T05:20:41.318Z,17.45
2022-12-28T05:23:08.379Z,17.55
2022-12-28T05:25:42.157Z,16.35
2022-12-28T05:28:15.257Z,16.40
2022-12-28T05:30:42.214Z,16.98
2022-12-28T05:33:09.243Z,16.08
2022-12-28T05:35:43.236Z,15.77
2022-12-28T05:38:10.381Z,15.82
2022-12-28T05:40:44.163Z,16.40
2022-12-28T05:43:11.233Z,16.30
2022-12-28T05:45:38.237Z,16.77
2022-12-28T05:48:12.302Z,14.93
2022-12-28T05:50:39.451Z,16.02
2022-12-28T05:53:13.236Z,15.18
2022-12-28T05:55:40.382Z,16.25
2022-12-28T05:58:14.205Z,15.55
2022-12-28T06:00:41.308Z,15.52
2022-12-28T06:03:15.409Z,23.65
2022-12-28T06:05:49.278Z,20.38
2022-12-28T06:08:22.850Z,16.35
2022-12-28T06:10:56.249Z,14.85
2022-12-28T06:13:23.344Z,16.23
2022-12-28T06:15:57.314Z,19.52
2022-12-28T06:18:31.252Z,17.73
2022-12-28T06:21:17.301Z,17.35
2022-12-28T06:23:44.533Z,19.10
2022-12-28T06:26:23.274Z,20.20
2022-12-28T06:29:03.240Z,20.45
2022-12-28T06:31:35.117Z,19.48
2022-12-28T06:34:10.227Z,20.33
2022-12-28T06:36:39.796Z,18.08
2022-12-28T06:39:09.083Z,17.73
2022-12-28T06:41:43.241Z,14.75
2022-12-28T06:44:18.295Z,17.48
2022-12-28T06:46:45.381Z,19.15
2022-12-28T06:49:19.310Z,16.90
2022-12-28T06:51:46.340Z,17.30
2022-12-28T06:54:13.412Z,16.80
2022-12-28T06:56:47.269Z,23.40
2022-12-28T06:59:14.267Z,24.98
2022-12-28T07:01:49.331Z,35.55
2022-12-28T07:04:16.563Z,37.28
2022-12-28T07:06:50.297Z,36.70
2022-12-28T07:09:17.395Z,30.80
2022-12-28T07:11:44.796Z,25.60
2022-12-28T07:14:18.248Z,25.00
2022-12-28T07:16:45.255Z,25.00
2022-12-28T07:19:12.346Z,23.90
2022-12-28T07:21:46.285Z,24.60
2022-12-28T07:24:13.284Z,24.02
2022-12-28T07:26:47.441Z,23.38
2022-12-28T07:29:14.423Z,24.40
2022-12-28T07:31:48.264Z,24.98
2022-12-28T07:34:15.586Z,27.50
2022-12-28T07:36:42.598Z,27.02
2022-12-28T07:39:16.250Z,27.40
2022-12-28T07:41:45.327Z,29.00
2022-12-28T07:44:19.331Z,29.83
2022-12-28T07:46:46.555Z,31.10
2022-12-28T07:49:20.340Z,32.80
2022-12-28T07:51:47.605Z,37.03
2022-12-28T07:54:21.357Z,33.53
2022-12-28T07:56:48.293Z,30.00
2022-12-28T07:59:27.423Z,28.48
2022-12-28T08:01:58.024Z,30.55
2022-12-28T08:04:31.313Z,28.15
2022-12-28T08:06:58.427Z,25.23
2022-12-28T08:09:32.248Z,24.67
2022-12-28T08:11:59.261Z,20.45
2022-12-28T08:14:33.259Z,21.45
2022-12-28T08:17:00.312Z,20.38
2022-12-28T08:19:34.335Z,22.35
2022-12-28T08:22:08.345Z,23.25
2022-12-28T08:24:35.331Z,25.92
2022-12-28T08:27:02.348Z,25.98
2022-12-28T08:29:36.278Z,24.58
2022-12-28T08:32:10.341Z,24.92
2022-12-28T08:34:37.364Z,19.45
2022-12-28T08:37:11.298Z,16.73
2022-12-28T08:39:38.251Z,15.90
2022-12-28T08:42:11.288Z,15.73
2022-12-28T08:44:38.262Z,14.68
2022-12-28T08:47:12.362Z,15.38
2022-12-28T08:49:39.412Z,16.42
2022-12-28T08:52:13.237Z,16.10
2022-12-28T08:54:40.206Z,18.00
2022-12-28T08:57:13.282Z,22.33
2022-12-28T08:59:40.679Z,17.80
2022-12-28T09:02:14.559Z,15.23
2022-12-28T09:04:42.051Z,14.55
2022-12-28T09:07:08.986Z,14.82
2022-12-28T09:09:42.403Z,14.80
2022-12-28T09:12:09.402Z,15.25
2022-12-28T09:14:43.331Z,14.32
2022-12-28T09:17:10.241Z,15.73
2022-12-28T09:19:43.266Z,15.00
2022-12-28T09:22:10.228Z,14.07
2022-12-28T09:24:37.215Z,14.32
2022-12-28T09:27:10.367Z,15.50
2022-12-28T09:29:37.399Z,16.42
2022-12-28T09:32:11.283Z,16.75
2022-12-28T09:34:44.337Z,17.08
2022-12-28T09:37:11.322Z,17.58
2022-12-28T09:39:38.373Z,17.38
2022-12-28T09:42:22.327Z,19.80
2022-12-28T09:45:09.885Z,22.02
2022-12-28T09:47:54.346Z,19.45
2022-12-28T09:50:27.056Z,18.08
2022-12-28T09:53:33.265Z,14.63
2022-12-28T09:56:39.678Z,14.93
2022-12-28T09:59:13.321Z,14.70
2022-12-28T10:01:40.367Z,14.85
2022-12-28T10:04:07.416Z,15.05
2022-12-28T10:06:41.357Z,14.38
2022-12-28T10:09:15.118Z,20.00
2022-12-28T10:11:49.253Z,17.65
2022-12-28T10:14:30.125Z,17.63
2022-12-28T10:17:03.321Z,17.10
2022-12-28T10:19:30.267Z,16.98
2022-12-28T10:22:12.310Z,15.50
2022-12-28T10:24:39.873Z,15.82
2022-12-28T10:27:15.342Z,14.70
2022-12-28T10:29:42.231Z,13.80
2022-12-28T10:32:16.444Z,13.95
2022-12-28T10:35:00.889Z,13.48
2022-12-28T10:37:39.297Z,12.15
2022-12-28T10:40:18.521Z,12.75
2022-12-28T10:42:52.323Z,13.35
2022-12-28T10:45:43.346Z,12.00
2022-12-28T10:48:29.405Z,13.32
2022-12-28T10:51:25.588Z,12.98
2022-12-28T10:54:01.347Z,12.75
2022-12-28T10:56:39.363Z,13.70
2022-12-28T10:59:12.390Z,12.95
2022-12-28T11:01:47.503Z,13.05
2022-12-28T11:04:29.394Z,12.88
2022-12-28T11:07:05.378Z,13.80
2022-12-28T11:09:40.342Z,13.13
2022-12-28T11:12:46.477Z,13.95
2022-12-28T11:15:19.064Z,13.18
2022-12-28T11:18:01.380Z,12.07
2022-12-28T11:20:41.327Z,12.80
2022-12-28T11:23:08.743Z,12.82
2022-12-28T11:25:43.368Z,15.45
2022-12-28T11:28:19.030Z,14.30
2022-12-28T11:30:56.347Z,13.57
2022-12-28T11:33:32.874Z,13.75
2022-12-28T11:36:10.058Z,13.23
2022-12-28T11:38:45.466Z,14.35
2022-12-28T11:41:56.357Z,14.23
2022-12-28T11:44:31.054Z,13.70
2022-12-28T11:47:12.355Z,13.40
2022-12-28T11:49:39.257Z,13.18
2022-12-28T11:52:24.346Z,13.77
2022-12-28T11:54:58.132Z,15.50
2022-12-28T11:57:50.346Z,14.73
2022-12-28T12:00:21.850Z,14.75
2022-12-28T12:03:02.463Z,14.38
2022-12-28T12:05:38.459Z,14.57
2022-12-28T12:08:23.332Z,14.20
2022-12-28T12:11:25.614Z,14.32
2022-12-28T12:13:59.375Z,14.45
2022-12-28T12:17:16.170Z,13.73
2022-12-28T12:19:55.390Z,12.95
2022-12-28T12:22:27.908Z,12.32
2022-12-28T12:25:45.460Z,12.35
2022-12-28T12:28:41.367Z,10.75
2022-12-28T12:31:13.424Z,11.90
2022-12-28T12:33:50.327Z,12.45
2022-12-28T12:36:40.473Z,12.50
2022-12-28T12:39:33.397Z,13.48
2022-12-28T12:42:36.022Z,12.23
2022-12-28T12:45:42.411Z,14.30
2022-12-28T12:48:46.357Z,11.20
2022-12-28T12:51:34.400Z,11.65
2022-12-28T12:54:40.772Z,12.20
2022-12-28T12:57:33.356Z,12.60
2022-12-28T13:00:17.498Z,11.52
2022-12-28T13:02:57.463Z,12.75
2022-12-28T13:05:26.812Z,12.88
2022-12-28T13:08:00.366Z,13.55
2022-12-28T13:10:42.363Z,14.35
2022-12-28T13:13:35.356Z,13.18
2022-12-28T13:16:05.309Z,14.90
2022-12-28T13:18:47.564Z,15.27
2022-12-28T13:21:26.413Z,14.88
2022-12-28T13:23:53.490Z,13.50
2022-12-28T13:26:34.361Z,14.73
2022-12-28T13:29:10.504Z,14.20
2022-12-28T13:31:40.996Z,14.50
2022-12-28T13:34:33.449Z,14.32
2022-12-28T13:37:12.931Z,13.65
2022-12-28T13:39:46.427Z,14.75
2022-12-28T13:42:32.451Z,15.43
2022-12-28T13:45:06.081Z,17.05
2022-12-28T13:47:43.434Z,16.73
2022-12-28T13:50:24.409Z,16.02
2022-12-28T13:52:56.043Z,14.15
2022-12-28T13:55:35.408Z,14.82
2022-12-28T13:58:05.294Z,13.32
2022-12-28T14:00:32.180Z,15.02
2022-12-28T14:03:05.450Z,14.75
2022-12-28T14:05:32.442Z,14.13
2022-12-28T14:08:06.451Z,12.98
2022-12-28T14:10:33.431Z,13.05
2022-12-28T14:13:00.337Z,13.50
2022-12-28T14:15:40.621Z,12.73
2022-12-28T14:18:14.446Z,12.95
2022-12-28T14:21:01.399Z,14.07
2022-12-28T14:23:33.795Z,12.77
2022-12-28T14:26:12.409Z,14.55
2022-12-28T14:28:50.788Z,15.35
2022-12-28T14:31:36.429Z,16.85
2022-12-28T14:34:05.218Z,15.07
2022-12-28T14:36:55.405Z,14.55
2022-12-28T14:39:31.123Z,14.98
2022-12-28T14:42:05.443Z,15.38
2022-12-28T14:44:52.543Z,14.18
2022-12-28T14:47:45.510Z,13.55
2022-12-28T14:50:32.433Z,13.23
2022-12-28T14:53:15.905Z,13.25
2022-12-28T14:56:10.439Z,12.90
2022-12-28T14:58:57.424Z,13.88
2022-12-28T15:01:25.196Z,20.83
2022-12-28T15:04:08.446Z,27.65
2022-12-28T15:06:35.392Z,30.92
2022-12-28T15:09:08.460Z,26.67
2022-12-28T15:11:35.405Z,23.30
2022-12-28T15:14:08.420Z,23.77
2022-12-28T15:16:35.393Z,24.83
2022-12-28T15:19:09.471Z,23.45
2022-12-28T15:21:42.413Z,24.48
2022-12-28T15:24:09.355Z,26.95
2022-12-28T15:26:42.444Z,24.33
2022-12-28T15:29:09.298Z,22.45
2022-12-28T15:31:42.521Z,20.88
2022-12-28T15:34:09.450Z,19.38
2022-12-28T15:36:36.327Z,20.70
2022-12-28T15:39:10.504Z,22.42
2022-12-28T15:41:37.428Z,26.58
2022-12-28T15:44:04.762Z,27.80
2022-12-28T15:46:38.564Z,31.92
2022-12-28T15:49:06.437Z,32.67
2022-12-28T15:51:39.529Z,26.00
2022-12-28T15:54:06.737Z,26.38
2022-12-28T15:56:42.505Z,24.13
2022-12-28T15:59:14.497Z,22.15
2022-12-28T16:01:49.687Z,22.73
2022-12-28T16:04:16.754Z,25.58
2022-12-28T16:06:45.115Z,26.15
2022-12-28T16:09:19.511Z,26.13
2022-12-28T16:11:51.497Z,29.20
2022-12-28T16:14:35.485Z,28.73
2022-12-28T16:17:08.478Z,23.50
2022-12-28T16:19:35.458Z,23.25
2022-12-28T16:22:08.488Z,24.30
2022-12-28T16:24:41.495Z,23.48
2022-12-28T16:27:14.544Z,24.63
2022-12-28T16:29:58.667Z,24.13
2022-12-28T16:32:32.556Z,23.35
2022-12-28T16:35:05.558Z,23.02
2022-12-28T16:37:38.553Z,23.15
2022-12-28T16:40:06.469Z,23.65
2022-12-28T16:42:39.482Z,22.23
2022-12-28T16:45:13.548Z,21.45
2022-12-28T16:47:44.673Z,23.08
2022-12-28T16:50:18.491Z,24.50
2022-12-28T16:52:45.397Z,28.10
2022-12-28T16:55:18.539Z,29.23
2022-12-28T16:57:45.971Z,30.92
2022-12-28T17:00:13.454Z,31.50
2022-12-28T17:02:46.718Z,30.50
2022-12-28T17:05:20.502Z,30.45
2022-12-28T17:07:47.793Z,33.35
2022-12-28T17:10:15.029Z,33.63
2022-12-28T17:12:48.588Z,34.58
2022-12-28T17:15:22.556Z,38.45
2022-12-28T17:17:49.470Z,39.53
2022-12-28T17:20:22.522Z,40.17
2022-12-28T17:22:49.423Z,45.83
2022-12-28T17:25:22.563Z,39.28
2022-12-28T17:27:49.441Z,32.20
2022-12-28T17:30:16.398Z,30.98
2022-12-28T17:32:50.560Z,30.25
2022-12-28T17:35:17.475Z,26.05
2022-12-28T17:37:50.525Z,25.77
2022-12-28T17:40:24.532Z,25.60
2022-12-28T17:42:51.447Z,34.78
2022-12-28T17:45:18.287Z,47.45
2022-12-28T17:47:51.530Z,47.38
2022-12-28T17:50:24.538Z,50.25
2022-12-28T17:52:51.463Z,46.85
2022-12-28T17:55:18.351Z,36.17
2022-12-28T17:57:51.548Z,31.35
2022-12-28T18:00:18.818Z,28.85
2022-12-28T18:02:52.621Z,24.63
2022-12-28T18:05:26.559Z,25.02
2022-12-28T18:07:53.461Z,22.92
2022-12-28T18:10:20.365Z,21.38
2022-12-28T18:12:53.572Z,20.80
2022-12-28T18:15:20.472Z,21.67
2022-12-28T18:17:47.411Z,19.65
2022-12-28T18:20:20.612Z,17.80
2022-12-28T18:22:53.586Z,18.30
2022-12-28T18:25:20.465Z,17.63
2022-12-28T18:27:53.571Z,17.48
2022-12-28T18:30:26.588Z,17.77
2022-12-28T18:32:53.444Z,17.77
2022-12-28T18:35:20.344Z,17.60
2022-12-28T18:37:54.592Z,19.30
2022-12-28T18:40:21.497Z,18.35
2022-12-28T18:42:48.355Z,17.73
2022-12-28T18:45:21.627Z,17.45
2022-12-28T18:47:48.485Z,18.45
2022-12-28T18:50:15.401Z,19.17
2022-12-28T18:52:48.543Z,18.00
2022-12-28T18:55:15.493Z,17.75
2022-12-28T18:57:48.579Z,18.55
2022-12-28T19:00:22.604Z,20.38
2022-12-28T19:02:52.902Z,21.02
2022-12-28T19:05:26.544Z,22.20
2022-12-28T19:07:53.464Z,24.08
2022-12-28T19:10:26.563Z,24.95
2022-12-28T19:12:53.457Z,26.35
2022-12-28T19:15:26.568Z,26.27
2022-12-28T19:17:53.421Z,26.50
2022-12-28T19:20:26.627Z,27.98
2022-12-28T19:23:00.632Z,27.30
2022-12-28T19:25:27.630Z,26.73
2022-12-28T19:28:00.622Z,25.00
2022-12-28T19:30:33.569Z,24.70
2022-12-28T19:33:00.426Z,26.23
2022-12-28T19:35:33.612Z,25.65
2022-12-28T19:38:00.563Z,27.13
2022-12-28T19:40:33.617Z,27.35
2022-12-28T19:43:06.573Z,25.77
2022-12-28T19:45:33.467Z,24.13
2022-12-28T19:48:06.621Z,23.33
2022-12-28T19:50:33.528Z,25.30
2022-12-28T19:53:00.561Z,23.95
2022-12-28T19:55:33.624Z,24.17
2022-12-28T19:58:01.590Z,23.50
2022-12-28T20:00:34.666Z,23.42
2022-12-28T20:03:08.796Z,22.60
2022-12-28T20:05:42.591Z,21.77
2022-12-28T20:08:10.048Z,21.35
2022-12-28T20:10:37.269Z,20.92
2022-12-28T20:13:10.618Z,23.40
2022-12-28T20:15:41.912Z,19.60
2022-12-28T20:18:15.634Z,21.35
2022-12-28T20:21:17.994Z,22.75
2022-12-28T20:23:36.685Z,26.05
2022-12-28T20:26:10.633Z,31.15
2022-12-28T20:28:37.647Z,29.88
2022-12-28T20:31:06.903Z,30.15
2022-12-28T20:33:43.630Z,23.88
2022-12-28T20:36:19.167Z,21.52
2022-12-28T20:38:52.669Z,20.02
2022-12-28T20:41:22.799Z,18.35
2022-12-28T20:43:56.666Z,17.45
2022-12-28T20:46:23.739Z,17.90
2022-12-28T20:48:57.615Z,18.92
2022-12-28T20:51:24.916Z,20.67
2022-12-28T20:53:51.856Z,20.23
2022-12-28T20:56:25.646Z,20.80
2022-12-28T20:58:53.902Z,26.20
2022-12-28T21:01:27.725Z,38.63
2022-12-28T21:03:54.845Z,47.17
2022-12-28T21:06:28.690Z,35.05
2022-12-28T21:09:01.645Z,32.38
2022-12-28T21:11:34.617Z,32.47
2022-12-28T21:14:01.614Z,30.83
2022-12-28T21:16:34.737Z,26.55
2022-12-28T21:19:01.784Z,25.98
2022-12-28T21:21:35.654Z,21.88
2022-12-28T21:24:03.566Z,21.73
2022-12-28T21:26:36.710Z,20.00
2022-12-28T21:29:03.601Z,22.25
2022-12-28T21:31:36.682Z,21.73
2022-12-28T21:34:03.692Z,23.25
2022-12-28T21:36:37.690Z,21.52
2022-12-28T21:39:04.915Z,21.85
2022-12-28T21:41:38.664Z,22.55
2022-12-28T21:44:11.347Z,23.77
2022-12-28T21:46:45.701Z,22.35
2022-12-28T21:49:12.798Z,22.55
2022-12-28T21:51:39.743Z,22.80
2022-12-28T21:54:17.714Z,23.60
2022-12-28T21:56:46.216Z,23.60
2022-12-28T21:59:26.681Z,23.65
2022-12-28T22:01:54.106Z,28.58
2022-12-28T22:04:29.094Z,30.58
2022-12-28T22:06:56.136Z,38.50
2022-12-28T22:09:23.134Z,42.15
2022-12-28T22:11:57.812Z,29.85
2022-12-28T22:14:24.855Z,27.00
2022-12-28T22:16:58.672Z,25.20
2022-12-28T22:19:25.753Z,27.48
2022-12-28T22:21:58.777Z,27.95
2022-12-28T22:24:26.330Z,29.77
2022-12-28T22:26:59.738Z,27.10
2022-12-28T22:29:33.776Z,27.05
2022-12-28T22:32:00.704Z,30.35
2022-12-28T22:34:34.727Z,27.85
2022-12-28T22:37:01.858Z,26.95
2022-12-28T22:39:35.779Z,26.33
2022-12-28T22:42:03.143Z,28.35
2022-12-28T22:44:36.839Z,30.98
2022-12-28T22:47:04.437Z,34.00
2022-12-28T22:49:37.732Z,36.70
2022-12-28T22:52:05.085Z,37.95
2022-12-28T22:54:42.793Z,42.58
2022-12-28T22:57:09.982Z,49.83
2022-12-28T22:59:37.150Z,41.35
2022-12-28T23:02:11.006Z,38.15
2022-12-28T23:04:38.299Z,35.95
2022-12-28T23:07:11.769Z,41.55
2022-12-28T23:09:44.936Z,38.95
2022-12-28T23:12:25.859Z,35.85
2022-12-28T23:15:03.763Z,31.02
2022-12-28T23:17:37.787Z,27.63
2022-12-28T23:20:05.480Z,25.33
2022-12-28T23:22:40.782Z,23.52
2022-12-28T23:25:14.112Z,23.10
2022-12-28T23:27:49.819Z,24.08
2022-12-28T23:30:20.215Z,23.33
2022-12-28T23:32:58.770Z,23.30
2022-12-28T23:35:26.468Z,22.73
2022-12-28T23:37:59.991Z,22.75
2022-12-28T23:40:27.200Z,23.15
2022-12-28T23:42:56.756Z,21.25
2022-12-28T23:45:30.808Z,22.45
2022-12-28T23:47:58.095Z,22.17
2022-12-28T23:50:31.797Z,22.58
2022-12-28T23:53:05.816Z,21.77
2022-12-28T23:55:32.932Z,21.52
